sensor_id;sensor_type;location;lat;lon;timestamp;pressure;altitude;pressure_sealevel;temperature;humidity
27304;BME280;14791;52.392;13.092;2023-04-25T00:00:26;100167.25;;;14.44;42.41
27304;BME280;14791;52.392;13.092;2023-04-25T00:02:55;100167.59;;;14.45;42.45
27304;BME280;14791;52.392;13.092;2023-04-25T00:05:25;100162.56;;;14.46;42.47
27304;BME280;14791;52.392;13.092;2023-04-25T00:07:54;100165.97;;;14.48;42.49
27304;BME280;14791;52.392;13.092;2023-04-25T00:10:23;100169.03;;;14.49;42.51
27304;BME280;14791;52.392;13.092;2023-04-25T00:12:52;100169.76;;;14.51;42.49
27304;BME280;14791;52.392;13.092;2023-04-25T00:15:21;100171.45;;;14.52;42.51
27304;BME280;14791;52.392;13.092;2023-04-25T00:17:50;100171.36;;;14.54;42.51
27304;BME280;14791;52.392;13.092;2023-04-25T00:20:20;100168.27;;;14.53;42.54
27304;BME280;14791;52.392;13.092;2023-04-25T00:22:51;100165.73;;;14.51;42.57
27304;BME280;14791;52.392;13.092;2023-04-25T00:25:21;100169.38;;;14.50;42.56
27304;BME280;14791;52.392;13.092;2023-04-25T00:27:50;100168.66;;;14.48;42.58
27304;BME280;14791;52.392;13.092;2023-04-25T00:30:18;100171.12;;;14.45;42.62
27304;BME280;14791;52.392;13.092;2023-04-25T00:32:47;100170.05;;;14.42;42.71
27304;BME280;14791;52.392;13.092;2023-04-25T00:35:16;100167.64;;;14.39;42.72
27304;BME280;14791;52.392;13.092;2023-04-25T00:37:45;100168.61;;;14.38;42.71
27304;BME280;14791;52.392;13.092;2023-04-25T00:40:14;100167.89;;;14.36;42.78
27304;BME280;14791;52.392;13.092;2023-04-25T00:42:44;100164.01;;;14.35;42.84
27304;BME280;14791;52.392;13.092;2023-04-25T00:45:15;100167.20;;;14.34;42.86
27304;BME280;14791;52.392;13.092;2023-04-25T00:47:44;100161.33;;;14.35;42.87
27304;BME280;14791;52.392;13.092;2023-04-25T00:50:14;100161.33;;;14.35;42.88
27304;BME280;14791;52.392;13.092;2023-04-25T00:52:44;100157.30;;;14.35;42.89
27304;BME280;14791;52.392;13.092;2023-04-25T00:55:13;100157.30;;;14.35;42.90
27304;BME280;14791;52.392;13.092;2023-04-25T00:57:43;100165.70;;;14.36;42.86
27304;BME280;14791;52.392;13.092;2023-04-25T01:00:13;100167.89;;;14.36;42.85
27304;BME280;14791;52.392;13.092;2023-04-25T01:02:42;100174.14;;;14.37;42.87
27304;BME280;14791;52.392;13.092;2023-04-25T01:05:12;100164.01;;;14.35;42.90
27304;BME280;14791;52.392;13.092;2023-04-25T01:07:41;100168.04;;;14.35;42.91
27304;BME280;14791;52.392;13.092;2023-04-25T01:10:10;100164.51;;;14.34;42.94
27304;BME280;14791;52.392;13.092;2023-04-25T01:12:40;100163.17;;;14.34;42.96
27304;BME280;14791;52.392;13.092;2023-04-25T01:15:09;100159.36;;;14.37;42.94
27304;BME280;14791;52.392;13.092;2023-04-25T01:17:38;100150.65;;;14.39;42.85
27304;BME280;14791;52.392;13.092;2023-04-25T01:20:09;100154.45;;;14.36;42.83
27304;BME280;14791;52.392;13.092;2023-04-25T01:22:39;100148.73;;;14.35;42.83
27304;BME280;14791;52.392;13.092;2023-04-25T01:25:08;100159.60;;;14.34;42.81
27304;BME280;14791;52.392;13.092;2023-04-25T01:27:38;100154.00;;;14.31;42.83
27304;BME280;14791;52.392;13.092;2023-04-25T01:30:08;100151.09;;;14.29;42.83
27304;BME280;14791;52.392;13.092;2023-04-25T01:32:38;100149.53;;;14.26;42.84
27304;BME280;14791;52.392;13.092;2023-04-25T01:35:10;100149.30;;;14.23;42.91
27304;BME280;14791;52.392;13.092;2023-04-25T01:37:42;100152.83;;;14.24;42.94
27304;BME280;14791;52.392;13.092;2023-04-25T01:40:13;100150.30;;;14.22;42.98
27304;BME280;14791;52.392;13.092;2023-04-25T01:42:44;100150.42;;;14.21;43.01
27304;BME280;14791;52.392;13.092;2023-04-25T01:45:14;100145.55;;;14.20;43.06
27304;BME280;14791;52.392;13.092;2023-04-25T01:47:43;100139.67;;;14.21;43.04
27304;BME280;14791;52.392;13.092;2023-04-25T01:50:15;100144.20;;;14.20;43.02
27304;BME280;14791;52.392;13.092;2023-04-25T01:52:45;100142.86;;;14.20;43.07
27304;BME280;14791;52.392;13.092;2023-04-25T01:55:14;100141.52;;;14.20;43.06
27304;BME280;14791;52.392;13.092;2023-04-25T01:57:45;100142.86;;;14.20;43.08
27304;BME280;14791;52.392;13.092;2023-04-25T02:00:14;100143.83;;;14.19;43.05
27304;BME280;14791;52.392;13.092;2023-04-25T02:02:42;100142.48;;;14.19;43.00
27304;BME280;14791;52.392;13.092;2023-04-25T02:05:24;100143.48;;;14.18;43.01
27304;BME280;14791;52.392;13.092;2023-04-25T02:07:54;100145.72;;;14.13;43.09
27304;BME280;14791;52.392;13.092;2023-04-25T02:10:24;100149.37;;;14.12;43.08
27304;BME280;14791;52.392;13.092;2023-04-25T02:12:55;100149.64;;;14.09;43.11
27304;BME280;14791;52.392;13.092;2023-04-25T02:15:27;100145.27;;;14.08;43.11
27304;BME280;14791;52.392;13.092;2023-04-25T02:17:57;100139.67;;;14.06;43.17
27304;BME280;14791;52.392;13.092;2023-04-25T02:20:29;100143.70;;;14.06;43.21
27304;BME280;14791;52.392;13.092;2023-04-25T02:22:59;100145.50;;;14.05;43.23
27304;BME280;14791;52.392;13.092;2023-04-25T02:25:29;100130.27;;;14.06;43.24
27304;BME280;14791;52.392;13.092;2023-04-25T02:27:58;100137.45;;;14.05;43.20
27304;BME280;14791;52.392;13.092;2023-04-25T02:30:27;100134.41;;;14.04;43.22
27304;BME280;14791;52.392;13.092;2023-04-25T02:32:57;100137.59;;;14.03;43.21
27304;BME280;14791;52.392;13.092;2023-04-25T02:35:26;100139.06;;;14.02;43.25
27304;BME280;14791;52.392;13.092;2023-04-25T02:37:55;100141.40;;;14.01;43.25
27304;BME280;14791;52.392;13.092;2023-04-25T02:40:23;100138.95;;;13.98;43.31
27304;BME280;14791;52.392;13.092;2023-04-25T02:42:54;100131.89;;;13.97;43.32
27304;BME280;14791;52.392;13.092;2023-04-25T02:45:23;100136.92;;;13.96;43.36
27304;BME280;14791;52.392;13.092;2023-04-25T02:47:52;100132.89;;;13.96;43.36
27304;BME280;14791;52.392;13.092;2023-04-25T02:50:21;100125.69;;;13.96;43.40
27304;BME280;14791;52.392;13.092;2023-04-25T02:52:50;100130.20;;;13.96;43.41
27304;BME280;14791;52.392;13.092;2023-04-25T02:55:20;100126.52;;;13.97;43.41
27304;BME280;14791;52.392;13.092;2023-04-25T02:57:50;100125.80;;;13.95;43.37
27304;BME280;14791;52.392;13.092;2023-04-25T03:00:21;100131.29;;;13.93;43.37
27304;BME280;14791;52.392;13.092;2023-04-25T03:02:51;100127.41;;;13.92;43.39
27304;BME280;14791;52.392;13.092;2023-04-25T03:05:20;100124.35;;;13.91;43.41
27304;BME280;14791;52.392;13.092;2023-04-25T03:07:49;100124.73;;;13.92;43.45
27304;BME280;14791;52.392;13.092;2023-04-25T03:10:18;100125.70;;;13.91;43.45
27304;BME280;14791;52.392;13.092;2023-04-25T03:12:47;100130.72;;;13.90;43.45
27304;BME280;14791;52.392;13.092;2023-04-25T03:15:16;100131.71;;;13.89;43.41
27304;BME280;14791;52.392;13.092;2023-04-25T03:17:46;100130.48;;;13.87;43.44
27304;BME280;14791;52.392;13.092;2023-04-25T03:20:15;100128.42;;;13.85;43.42
27304;BME280;14791;52.392;13.092;2023-04-25T03:22:44;100133.56;;;13.82;43.52
27304;BME280;14791;52.392;13.092;2023-04-25T03:25:13;100134.91;;;13.82;43.60
27304;BME280;14791;52.392;13.092;2023-04-25T03:27:43;100128.31;;;13.81;43.60
27304;BME280;14791;52.392;13.092;2023-04-25T03:30:13;100126.13;;;13.80;43.62
27304;BME280;14791;52.392;13.092;2023-04-25T03:32:43;100134.17;;;13.80;43.65
27304;BME280;14791;52.392;13.092;2023-04-25T03:35:13;100126.74;;;13.78;43.69
27304;BME280;14791;52.392;13.092;2023-04-25T03:37:42;100129.08;;;13.77;43.72
27304;BME280;14791;52.392;13.092;2023-04-25T03:40:16;100131.38;;;13.76;43.77
27304;BME280;14791;52.392;13.092;2023-04-25T03:43:02;100127.86;;;13.76;43.81
27304;BME280;14791;52.392;13.092;2023-04-25T03:45:31;100133.98;;;13.72;43.79
27304;BME280;14791;52.392;13.092;2023-04-25T03:48:00;100133.38;;;13.69;43.82
27304;BME280;14791;52.392;13.092;2023-04-25T03:50:29;100136.21;;;13.67;43.84
27304;BME280;14791;52.392;13.092;2023-04-25T03:52:58;100138.52;;;13.66;43.86
27304;BME280;14791;52.392;13.092;2023-04-25T03:55:28;100132.92;;;13.64;43.89
27304;BME280;14791;52.392;13.092;2023-04-25T03:57:59;100138.41;;;13.62;43.96
27304;BME280;14791;52.392;13.092;2023-04-25T04:00:28;100137.56;;;13.61;44.01
27304;BME280;14791;52.392;13.092;2023-04-25T04:02:57;100139.40;;;13.61;44.11
27304;BME280;14791;52.392;13.092;2023-04-25T04:05:26;100143.42;;;13.61;44.16
27304;BME280;14791;52.392;13.092;2023-04-25T04:07:56;100139.74;;;13.62;44.19
27304;BME280;14791;52.392;13.092;2023-04-25T04:10:25;100147.17;;;13.64;44.22
27304;BME280;14791;52.392;13.092;2023-04-25T04:12:56;100152.66;;;13.68;44.22
27304;BME280;14791;52.392;13.092;2023-04-25T04:15:24;100150.32;;;13.69;44.22
27304;BME280;14791;52.392;13.092;2023-04-25T04:17:54;100154.23;;;13.71;44.22
27304;BME280;14791;52.392;13.092;2023-04-25T04:20:23;100155.45;;;13.72;44.22
27304;BME280;14791;52.392;13.092;2023-04-25T04:22:52;100156.65;;;13.74;44.18
27304;BME280;14791;52.392;13.092;2023-04-25T04:25:22;100164.23;;;13.74;44.19
27304;BME280;14791;52.392;13.092;2023-04-25T04:28:03;100162.52;;;13.73;44.19
27304;BME280;14791;52.392;13.092;2023-04-25T04:30:40;100167.77;;;13.69;44.22
27304;BME280;14791;52.392;13.092;2023-04-25T04:33:10;100173.78;;;13.67;44.32
27304;BME280;14791;52.392;13.092;2023-04-25T04:35:40;100173.41;;;13.66;44.37
27304;BME280;14791;52.392;13.092;2023-04-25T04:38:10;100173.78;;;13.67;44.38
27304;BME280;14791;52.392;13.092;2023-04-25T04:40:39;100172.91;;;13.67;44.37
27304;BME280;14791;52.392;13.092;2023-04-25T04:43:14;100179.15;;;13.67;44.41
27304;BME280;14791;52.392;13.092;2023-04-25T04:45:49;100178.04;;;13.64;44.48
27304;BME280;14791;52.392;13.092;2023-04-25T04:48:20;100183.06;;;13.63;44.53
27304;BME280;14791;52.392;13.092;2023-04-25T04:50:50;100177.45;;;13.60;44.61
27304;BME280;14791;52.392;13.092;2023-04-25T04:53:37;100178.30;;;13.61;44.71
27304;BME280;14791;52.392;13.092;2023-04-25T04:56:24;100183.44;;;13.58;44.80
27304;BME280;14791;52.392;13.092;2023-04-25T04:58:54;100182.70;;;13.56;44.90
27304;BME280;14791;52.392;13.092;2023-04-25T05:01:28;100182.21;;;13.57;45.11
27304;BME280;14791;52.392;13.092;2023-04-25T05:04:04;100181.86;;;13.56;45.18
27304;BME280;14791;52.392;13.092;2023-04-25T05:06:42;100188.84;;;13.53;45.23
27304;BME280;14791;52.392;13.092;2023-04-25T05:09:17;100190.17;;;13.53;45.22
27304;BME280;14791;52.392;13.092;2023-04-25T05:11:52;100189.44;;;13.51;45.23
27304;BME280;14791;52.392;13.092;2023-04-25T05:14:25;100194.43;;;13.50;45.32
27304;BME280;14791;52.392;13.092;2023-04-25T05:17:05;100192.48;;;13.52;45.37
27304;BME280;14791;52.392;13.092;2023-04-25T05:19:46;100194.31;;;13.51;45.47
27304;BME280;14791;52.392;13.092;2023-04-25T05:22:17;100194.20;;;13.53;45.54
27304;BME280;14791;52.392;13.092;2023-04-25T05:25:04;100194.28;;;13.57;45.49
27304;BME280;14791;52.392;13.092;2023-04-25T05:27:39;100195.28;;;13.56;45.49
27304;BME280;14791;52.392;13.092;2023-04-25T05:30:26;100189.65;;;13.59;45.48
27304;BME280;14791;52.392;13.092;2023-04-25T05:32:59;100194.05;;;13.60;45.54
27304;BME280;14791;52.392;13.092;2023-04-25T05:35:28;100187.43;;;13.64;45.52
27304;BME280;14791;52.392;13.092;2023-04-25T05:37:57;100191.92;;;13.69;45.47
27304;BME280;14791;52.392;13.092;2023-04-25T05:40:28;100190.69;;;13.73;45.40
27304;BME280;14791;52.392;13.092;2023-04-25T05:43:01;100191.30;;;13.77;45.37
27304;BME280;14791;52.392;13.092;2023-04-25T05:45:32;100190.20;;;13.79;45.38
27304;BME280;14791;52.392;13.092;2023-04-25T05:48:08;100189.66;;;13.86;45.41
27304;BME280;14791;52.392;13.092;2023-04-25T05:50:41;100203.20;;;13.90;45.44
27304;BME280;14791;52.392;13.092;2023-04-25T05:53:15;100203.66;;;13.95;45.45
27304;BME280;14791;52.392;13.092;2023-04-25T05:55:45;100198.62;;;14.01;45.33
27304;BME280;14791;52.392;13.092;2023-04-25T05:58:21;100200.31;;;14.08;45.28
27304;BME280;14791;52.392;13.092;2023-04-25T06:00:50;100195.52;;;14.12;45.16
27304;BME280;14791;52.392;13.092;2023-04-25T06:03:19;100208.05;;;14.17;45.13
27304;BME280;14791;52.392;13.092;2023-04-25T06:05:49;100211.35;;;14.20;45.10
27304;BME280;14791;52.392;13.092;2023-04-25T06:08:18;100209.39;;;14.22;45.04
27304;BME280;14791;52.392;13.092;2023-04-25T06:10:47;100216.80;;;14.24;44.95
27304;BME280;14791;52.392;13.092;2023-04-25T06:13:16;100218.86;;;14.26;44.96
27304;BME280;14791;52.392;13.092;2023-04-25T06:15:45;100218.86;;;14.26;44.97
27304;BME280;14791;52.392;13.092;2023-04-25T06:18:14;100221.31;;;14.30;44.99
27304;BME280;14791;52.392;13.092;2023-04-25T06:20:43;100214.45;;;14.31;44.94
27304;BME280;14791;52.392;13.092;2023-04-25T06:23:12;100217.36;;;14.34;44.92
27304;BME280;14791;52.392;13.092;2023-04-25T06:25:55;100219.08;;;14.35;44.97
27304;BME280;14791;52.392;13.092;2023-04-25T06:28:24;100222.61;;;14.35;45.01
27304;BME280;14791;52.392;13.092;2023-04-25T06:30:54;100228.09;;;14.39;44.99
27304;BME280;14791;52.392;13.092;2023-04-25T06:33:23;100222.33;;;14.44;44.91
27304;BME280;14791;52.392;13.092;2023-04-25T06:35:52;100225.81;;;14.50;44.81
27304;BME280;14791;52.392;13.092;2023-04-25T06:38:23;100231.56;;;14.51;44.74
27304;BME280;14791;52.392;13.092;2023-04-25T06:40:53;100229.48;;;14.55;44.73
27304;BME280;14791;52.392;13.092;2023-04-25T06:43:22;100237.77;;;14.57;44.72
27304;BME280;14791;52.392;13.092;2023-04-25T06:45:55;100229.59;;;14.59;44.64
27304;BME280;14791;52.392;13.092;2023-04-25T06:48:27;100235.80;;;14.59;44.67
27304;BME280;14791;52.392;13.092;2023-04-25T06:50:56;100243.59;;;14.62;44.60
27304;BME280;14791;52.392;13.092;2023-04-25T06:53:25;100239.72;;;14.61;44.54
27304;BME280;14791;52.392;13.092;2023-04-25T06:55:59;100246.55;;;14.59;44.54
27304;BME280;14791;52.392;13.092;2023-04-25T06:58:29;100240.73;;;14.54;44.55
27304;BME280;14791;52.392;13.092;2023-04-25T07:01:03;100242.31;;;14.51;44.65
27304;BME280;14791;52.392;13.092;2023-04-25T07:03:32;100240.24;;;14.49;44.72
27304;BME280;14791;52.392;13.092;2023-04-25T07:06:03;100253.30;;;14.48;44.79
27304;BME280;14791;52.392;13.092;2023-04-25T07:08:32;100251.50;;;14.43;45.09
27304;BME280;14791;52.392;13.092;2023-04-25T07:11:01;100251.31;;;14.35;45.10
27304;BME280;14791;52.392;13.092;2023-04-25T07:13:30;100262.84;;;14.25;45.21
27304;BME280;14791;52.392;13.092;2023-04-25T07:16:00;100271.41;;;14.19;45.28
27304;BME280;14791;52.392;13.092;2023-04-25T07:18:29;100267.53;;;14.12;45.25
27304;BME280;14791;52.392;13.092;2023-04-25T07:20:59;100269.75;;;14.07;45.28
27304;BME280;14791;52.392;13.092;2023-04-25T07:23:29;100273.05;;;14.05;45.22
27304;BME280;14791;52.392;13.092;2023-04-25T07:25:59;100272.70;;;14.04;45.12
27304;BME280;14791;52.392;13.092;2023-04-25T07:28:29;100283.06;;;14.03;45.06
27304;BME280;14791;52.392;13.092;2023-04-25T07:30:58;100281.37;;;14.02;45.10
27304;BME280;14791;52.392;13.092;2023-04-25T07:33:27;100285.63;;;14.04;45.17
27304;BME280;14791;52.392;13.092;2023-04-25T07:35:57;100285.25;;;14.09;45.23
27304;BME280;14791;52.392;13.092;2023-04-25T07:38:26;100291.08;;;14.14;45.16
27304;BME280;14791;52.392;13.092;2023-04-25T07:40:56;100290.44;;;14.22;45.06
27304;BME280;14791;52.392;13.092;2023-04-25T07:43:25;100295.80;;;14.28;45.05
27304;BME280;14791;52.392;13.092;2023-04-25T07:45:56;100300.03;;;14.36;44.98
27304;BME280;14791;52.392;13.092;2023-04-25T07:48:27;100305.51;;;14.40;44.83
27304;BME280;14791;52.392;13.092;2023-04-25T07:50:57;100308.66;;;14.45;44.75
27304;BME280;14791;52.392;13.092;2023-04-25T07:53:26;100309.27;;;14.49;44.68
27304;BME280;14791;52.392;13.092;2023-04-25T07:55:57;100312.30;;;14.50;44.65
27304;BME280;14791;52.392;13.092;2023-04-25T07:58:26;100315.48;;;14.49;44.62
27304;BME280;14791;52.392;13.092;2023-04-25T08:00:56;100321.70;;;14.50;44.61
27304;BME280;14791;52.392;13.092;2023-04-25T08:03:33;100320.86;;;14.49;44.58
27304;BME280;14791;52.392;13.092;2023-04-25T08:06:04;100322.55;;;14.50;44.59
27304;BME280;14791;52.392;13.092;2023-04-25T08:08:35;100318.52;;;14.50;44.51
27304;BME280;14791;52.392;13.092;2023-04-25T08:11:05;100320.86;;;14.49;44.54
27304;BME280;14791;52.392;13.092;2023-04-25T08:13:34;100317.17;;;14.50;44.57
27304;BME280;14791;52.392;13.092;2023-04-25T08:16:04;100326.31;;;14.53;44.68
27304;BME280;14791;52.392;13.092;2023-04-25T08:18:33;100327.18;;;14.59;44.66
27304;BME280;14791;52.392;13.092;2023-04-25T08:21:02;100320.19;;;14.62;44.64
27304;BME280;14791;52.392;13.092;2023-04-25T08:23:31;100328.59;;;14.69;44.54
27304;BME280;14791;52.392;13.092;2023-04-25T08:26:02;100329.89;;;14.75;44.53
27304;BME280;14791;52.392;13.092;2023-04-25T08:28:33;100335.10;;;14.82;44.41
27304;BME280;14791;52.392;13.092;2023-04-25T08:31:04;100335.81;;;14.89;44.15
27304;BME280;14791;52.392;13.092;2023-04-25T08:33:34;100332.35;;;14.93;43.99
27304;BME280;14791;52.392;13.092;2023-04-25T08:36:11;100342.20;;;15.04;43.82
27304;BME280;14791;52.392;13.092;2023-04-25T08:38:40;100344.84;;;15.09;43.52
27304;BME280;14791;52.392;13.092;2023-04-25T08:41:11;100342.70;;;15.19;43.19
27304;BME280;14791;52.392;13.092;2023-04-25T08:43:42;100352.66;;;15.28;42.85
27304;BME280;14791;52.392;13.092;2023-04-25T08:46:17;100355.39;;;15.38;42.43
27304;BME280;14791;52.392;13.092;2023-04-25T08:49:06;100361.22;;;15.43;42.38
27304;BME280;14791;52.392;13.092;2023-04-25T08:51:44;100372.92;;;15.47;42.35
27304;BME280;14791;52.392;13.092;2023-04-25T08:54:13;100366.77;;;15.51;41.70
27304;BME280;14791;52.392;13.092;2023-04-25T08:56:44;100377.19;;;15.50;41.12
27304;BME280;14791;52.392;13.092;2023-04-25T08:59:14;100373.14;;;15.50;40.81
27304;BME280;14791;52.392;13.092;2023-04-25T09:01:44;100360.19;;;15.49;40.60
27304;BME280;14791;52.392;13.092;2023-04-25T09:04:13;100358.84;;;15.49;40.52
27304;BME280;14791;52.392;13.092;2023-04-25T09:06:42;100371.02;;;15.53;40.37
27304;BME280;14791;52.392;13.092;2023-04-25T09:09:11;100365.61;;;15.59;40.38
27304;BME280;14791;52.392;13.092;2023-04-25T09:11:41;100370.65;;;15.68;40.52
27304;BME280;14791;52.392;13.092;2023-04-25T09:14:15;100377.66;;;15.80;40.42
27304;BME280;14791;52.392;13.092;2023-04-25T09:17:00;100382.61;;;15.90;40.05
27304;BME280;14791;52.392;13.092;2023-04-25T09:19:44;100378.00;;;15.97;39.98
27304;BME280;14791;52.392;13.092;2023-04-25T09:22:16;100378.09;;;16.01;40.12
27304;BME280;14791;52.392;13.092;2023-04-25T09:24:47;100387.03;;;16.11;39.74
27304;BME280;14791;52.392;13.092;2023-04-25T09:27:20;100382.08;;;16.16;39.39
27304;BME280;14791;52.392;13.092;2023-04-25T09:29:59;100391.25;;;16.19;39.36
27304;BME280;14791;52.392;13.092;2023-04-25T09:32:43;100395.00;;;16.22;39.37
27304;BME280;14791;52.392;13.092;2023-04-25T09:35:23;100396.66;;;16.29;39.27
27304;BME280;14791;52.392;13.092;2023-04-25T09:37:46;100386.80;;;16.33;39.22
27304;BME280;14791;52.392;13.092;2023-04-25T09:40:32;100392.70;;;16.43;38.93
27304;BME280;14791;52.392;13.092;2023-04-25T09:43:02;100398.36;;;16.49;38.72
27304;BME280;14791;52.392;13.092;2023-04-25T09:45:32;100397.30;;;16.56;38.51
27304;BME280;14791;52.392;13.092;2023-04-25T09:48:05;100401.84;;;16.65;38.21
27304;BME280;14791;52.392;13.092;2023-04-25T09:50:36;100412.42;;;16.72;38.05
27304;BME280;14791;52.392;13.092;2023-04-25T09:53:08;100403.52;;;16.82;37.82
27304;BME280;14791;52.392;13.092;2023-04-25T09:55:38;100411.09;;;16.92;37.49
27304;BME280;14791;52.392;13.092;2023-04-25T09:58:09;100406.48;;;16.98;37.31
27304;BME280;14791;52.392;13.092;2023-04-25T10:00:41;100403.19;;;17.04;37.03
27304;BME280;14791;52.392;13.092;2023-04-25T10:03:12;100410.35;;;17.09;36.76
27304;BME280;14791;52.392;13.092;2023-04-25T10:05:53;100421.22;;;17.13;36.56
27304;BME280;14791;52.392;13.092;2023-04-25T10:08:24;100419.53;;;17.12;36.59
27304;BME280;14791;52.392;13.092;2023-04-25T10:10:54;100418.38;;;17.15;36.54
27304;BME280;14791;52.392;13.092;2023-04-25T10:13:24;100417.75;;;17.17;36.52
27304;BME280;14791;52.392;13.092;2023-04-25T10:15:54;100420.28;;;17.18;36.52
27304;BME280;14791;52.392;13.092;2023-04-25T10:18:25;100424.06;;;17.21;36.34
27304;BME280;14791;52.392;13.092;2023-04-25T10:20:56;100422.41;;;17.25;36.01
27304;BME280;14791;52.392;13.092;2023-04-25T10:23:26;100422.55;;;17.23;35.82
27304;BME280;14791;52.392;13.092;2023-04-25T10:25:56;100427.44;;;17.23;35.84
27304;BME280;14791;52.392;13.092;2023-04-25T10:28:25;100427.17;;;17.27;35.79
27304;BME280;14791;52.392;13.092;2023-04-25T10:31:04;100431.77;;;17.30;35.78
27304;BME280;14791;52.392;13.092;2023-04-25T10:33:36;100420.20;;;17.34;35.60
27304;BME280;14791;52.392;13.092;2023-04-25T10:36:20;100435.52;;;17.33;35.62
27304;BME280;14791;52.392;13.092;2023-04-25T10:38:50;100431.53;;;17.37;35.42
27304;BME280;14791;52.392;13.092;2023-04-25T10:41:20;100443.69;;;17.37;35.30
27304;BME280;14791;52.392;13.092;2023-04-25T10:43:59;100449.72;;;17.35;35.11
27304;BME280;14791;52.392;13.092;2023-04-25T10:46:29;100449.17;;;17.32;35.00
27304;BME280;14791;52.392;13.092;2023-04-25T10:49:03;100448.59;;;17.28;34.93
27304;BME280;14791;52.392;13.092;2023-04-25T10:51:33;100455.44;;;17.22;34.92
27304;BME280;14791;52.392;13.092;2023-04-25T10:54:04;100466.16;;;17.18;34.91
27304;BME280;14791;52.392;13.092;2023-04-25T10:56:39;100449.55;;;17.13;34.83
27304;BME280;14791;52.392;13.092;2023-04-25T10:59:13;100455.38;;;17.09;34.71
27304;BME280;14791;52.392;13.092;2023-04-25T11:01:44;100462.72;;;17.03;34.74
27304;BME280;14791;52.392;13.092;2023-04-25T11:04:24;100466.47;;;16.96;34.78
27304;BME280;14791;52.392;13.092;2023-04-25T11:07:00;100464.70;;;16.91;34.80
27304;BME280;14791;52.392;13.092;2023-04-25T11:09:29;100471.70;;;16.88;34.89
27304;BME280;14791;52.392;13.092;2023-04-25T11:11:59;100476.05;;;16.85;34.87
27304;BME280;14791;52.392;13.092;2023-04-25T11:14:28;100474.27;;;16.79;34.66
27304;BME280;14791;52.392;13.092;2023-04-25T11:16:58;100474.11;;;16.71;34.61
27304;BME280;14791;52.392;13.092;2023-04-25T11:19:29;100477.98;;;16.63;34.63
27304;BME280;14791;52.392;13.092;2023-04-25T11:22:02;100479.19;;;16.55;34.70
27304;BME280;14791;52.392;13.092;2023-04-25T11:24:35;100485.97;;;16.49;34.68
27304;BME280;14791;52.392;13.092;2023-04-25T11:27:05;100480.30;;;16.43;34.50
27304;BME280;14791;52.392;13.092;2023-04-25T11:29:34;100492.47;;;16.37;34.53
27304;BME280;14791;52.392;13.092;2023-04-25T11:32:04;100493.77;;;16.33;34.39
27304;BME280;14791;52.392;13.092;2023-04-25T11:34:33;100489.47;;;16.30;34.39
27304;BME280;14791;52.392;13.092;2023-04-25T11:37:03;100493.16;;;16.29;34.39
27304;BME280;14791;52.392;13.092;2023-04-25T11:39:33;100497.08;;;16.31;34.37
27304;BME280;14791;52.392;13.092;2023-04-25T11:42:04;100506.36;;;16.32;34.04
27304;BME280;14791;52.392;13.092;2023-04-25T11:44:33;100512.38;;;16.30;34.00
27304;BME280;14791;52.392;13.092;2023-04-25T11:47:02;100505.58;;;16.26;34.05
27304;BME280;14791;52.392;13.092;2023-04-25T11:49:31;100511.94;;;16.25;34.03
27304;BME280;14791;52.392;13.092;2023-04-25T11:52:00;100509.65;;;16.21;34.00
27304;BME280;14791;52.392;13.092;2023-04-25T11:54:29;100509.30;;;16.20;34.08
27304;BME280;14791;52.392;13.092;2023-04-25T11:56:58;100510.15;;;16.20;34.09
27304;BME280;14791;52.392;13.092;2023-04-25T11:59:29;100514.56;;;16.21;34.15
27304;BME280;14791;52.392;13.092;2023-04-25T12:01:58;100523.00;;;16.22;34.12
27304;BME280;14791;52.392;13.092;2023-04-25T12:04:30;100518.83;;;16.24;34.02
27304;BME280;14791;52.392;13.092;2023-04-25T12:07:00;100519.67;;;16.24;33.90
27304;BME280;14791;52.392;13.092;2023-04-25T12:09:32;100522.72;;;16.25;33.71
27304;BME280;14791;52.392;13.092;2023-04-25T12:12:01;100524.44;;;16.26;33.71
27304;BME280;14791;52.392;13.092;2023-04-25T12:14:34;100529.27;;;16.32;33.74
27304;BME280;14791;52.392;13.092;2023-04-25T12:17:04;100526.03;;;16.38;33.71
27304;BME280;14791;52.392;13.092;2023-04-25T12:19:36;100518.82;;;16.49;33.78
27304;BME280;14791;52.392;13.092;2023-04-25T12:22:24;100524.83;;;16.62;33.85
27304;BME280;14791;52.392;13.092;2023-04-25T12:24:53;100521.73;;;16.76;33.71
27304;BME280;14791;52.392;13.092;2023-04-25T12:27:25;100523.33;;;16.89;33.77
27304;BME280;14791;52.392;13.092;2023-04-25T12:29:56;100527.47;;;17.03;33.53
27304;BME280;14791;52.392;13.092;2023-04-25T12:32:26;100530.80;;;17.10;33.23
27304;BME280;14791;52.392;13.092;2023-04-25T12:34:55;100528.18;;;17.14;32.74
27304;BME280;14791;52.392;13.092;2023-04-25T12:37:24;100535.19;;;17.11;32.50
27304;BME280;14791;52.392;13.092;2023-04-25T12:39:53;100529.38;;;17.06;32.49
27304;BME280;14791;52.392;13.092;2023-04-25T12:42:23;100536.70;;;17.00;32.54
27304;BME280;14791;52.392;13.092;2023-04-25T12:44:51;100534.42;;;16.95;32.64
27304;BME280;14791;52.392;13.092;2023-04-25T12:47:20;100543.91;;;16.90;32.67
27304;BME280;14791;52.392;13.092;2023-04-25T12:49:49;100541.16;;;16.86;32.77
27304;BME280;14791;52.392;13.092;2023-04-25T12:52:18;100548.16;;;16.83;32.79
27304;BME280;14791;52.392;13.092;2023-04-25T12:54:47;100551.23;;;16.78;32.92
27304;BME280;14791;52.392;13.092;2023-04-25T12:57:16;100547.81;;;16.76;32.89
27304;BME280;14791;52.392;13.092;2023-04-25T12:59:45;100557.05;;;16.73;32.93